sensor_id;sensor_type;location;lat;lon;timestamp;temperature;humidity
71801;HTU21D;59647;55.838;37.292;2023-01-04T00:00:10;3.19;107.56
71801;HTU21D;59647;55.838;37.292;2023-01-04T00:02:36;3.14;107.61
71801;HTU21D;59647;55.838;37.292;2023-01-04T00:05:02;3.16;107.46
71801;HTU21D;59647;55.838;37.292;2023-01-04T00:07:28;3.17;107.69
71801;HTU21D;59647;55.838;37.292;2023-01-04T00:09:54;3.17;107.59
71801;HTU21D;59647;55.838;37.292;2023-01-04T00:12:21;3.13;109.03
71801;HTU21D;59647;55.838;37.292;2023-01-04T00:14:46;3.06;110.08
71801;HTU21D;59647;55.838;37.292;2023-01-04T00:17:12;3.10;109.56
71801;HTU21D;59647;55.838;37.292;2023-01-04T00:19:38;3.11;109.17
71801;HTU21D;59647;55.838;37.292;2023-01-04T00:22:03;3.15;108.89
71801;HTU21D;59647;55.838;37.292;2023-01-04T00:24:29;2.97;105.95
71801;HTU21D;59647;55.838;37.292;2023-01-04T00:26:54;2.98;105.53
71801;HTU21D;59647;55.838;37.292;2023-01-04T00:29:21;2.80;107.03
71801;HTU21D;59647;55.838;37.292;2023-01-04T00:31:47;2.76;106.95
71801;HTU21D;59647;55.838;37.292;2023-01-04T00:34:13;2.55;105.27
71801;HTU21D;59647;55.838;37.292;2023-01-04T00:36:39;2.47;102.98
71801;HTU21D;59647;55.838;37.292;2023-01-04T00:39:05;2.39;104.51
71801;HTU21D;59647;55.838;37.292;2023-01-04T00:41:38;2.22;99.19
71801;HTU21D;59647;55.838;37.292;2023-01-04T00:44:05;1.94;102.83
71801;HTU21D;59647;55.838;37.292;2023-01-04T00:46:30;1.71;103.86
71801;HTU21D;59647;55.838;37.292;2023-01-04T00:48:56;1.82;101.99
71801;HTU21D;59647;55.838;37.292;2023-01-04T00:51:22;1.56;103.38
71801;HTU21D;59647;55.838;37.292;2023-01-04T00:53:48;1.65;104.50
71801;HTU21D;59647;55.838;37.292;2023-01-04T00:56:13;1.70;104.81
71801;HTU21D;59647;55.838;37.292;2023-01-04T00:58:39;1.68;103.11
71801;HTU21D;59647;55.838;37.292;2023-01-04T01:01:05;1.48;101.22
71801;HTU21D;59647;55.838;37.292;2023-01-04T01:03:31;1.19;101.36
71801;HTU21D;59647;55.838;37.292;2023-01-04T01:06:00;1.11;101.51
71801;HTU21D;59647;55.838;37.292;2023-01-04T01:08:26;0.84;100.48
71801;HTU21D;59647;55.838;37.292;2023-01-04T01:10:52;0.73;102.63
71801;HTU21D;59647;55.838;37.292;2023-01-04T01:13:18;0.78;102.11
71801;HTU21D;59647;55.838;37.292;2023-01-04T01:15:44;0.69;101.95
71801;HTU21D;59647;55.838;37.292;2023-01-04T01:18:10;0.69;101.83
71801;HTU21D;59647;55.838;37.292;2023-01-04T01:20:39;0.58;102.63
71801;HTU21D;59647;55.838;37.292;2023-01-04T01:23:05;0.61;101.67
71801;HTU21D;59647;55.838;37.292;2023-01-04T01:25:34;0.53;99.71
71801;HTU21D;59647;55.838;37.292;2023-01-04T01:28:00;0.36;99.71
71801;HTU21D;59647;55.838;37.292;2023-01-04T01:30:26;0.13;100.77
71801;HTU21D;59647;55.838;37.292;2023-01-04T01:32:51;0.17;101.06
71801;HTU21D;59647;55.838;37.292;2023-01-04T01:35:17;0.19;100.48
71801;HTU21D;59647;55.838;37.292;2023-01-04T01:37:42;0.10;98.62
71801;HTU21D;59647;55.838;37.292;2023-01-04T01:40:08;-0.06;100.03
71801;HTU21D;59647;55.838;37.292;2023-01-04T01:42:34;-0.12;100.86
71801;HTU21D;59647;55.838;37.292;2023-01-04T01:45:00;-0.13;101.18
71801;HTU21D;59647;55.838;37.292;2023-01-04T01:47:41;-0.19;101.64
71801;HTU21D;59647;55.838;37.292;2023-01-04T01:50:19;-0.17;101.33
71801;HTU21D;59647;55.838;37.292;2023-01-04T01:52:44;-0.28;101.99
71801;HTU21D;59647;55.838;37.292;2023-01-04T01:55:10;-0.29;101.27
71801;HTU21D;59647;55.838;37.292;2023-01-04T01:57:36;-0.28;101.68
71801;HTU21D;59647;55.838;37.292;2023-01-04T02:00:05;-0.34;101.06
71801;HTU21D;59647;55.838;37.292;2023-01-04T02:02:43;-0.37;100.85
71801;HTU21D;59647;55.838;37.292;2023-01-04T02:05:10;-0.39;100.64
71801;HTU21D;59647;55.838;37.292;2023-01-04T02:07:37;-0.47;101.30
71801;HTU21D;59647;55.838;37.292;2023-01-04T02:10:03;-0.52;104.25
71801;HTU21D;59647;55.838;37.292;2023-01-04T02:12:28;-0.35;102.83
71801;HTU21D;59647;55.838;37.292;2023-01-04T02:14:54;-0.38;101.80
71801;HTU21D;59647;55.838;37.292;2023-01-04T02:32:30;-0.69;102.48
71801;HTU21D;59647;55.838;37.292;2023-01-04T02:40:20;-0.71;103.12
71801;HTU21D;59647;55.838;37.292;2023-01-04T02:42:50;-0.70;103.24
71801;HTU21D;59647;55.838;37.292;2023-01-04T02:45:40;-0.70;103.19
71801;HTU21D;59647;55.838;37.292;2023-01-04T02:48:07;-0.72;103.54
71801;HTU21D;59647;55.838;37.292;2023-01-04T02:50:55;-0.79;104.85
71801;HTU21D;59647;55.838;37.292;2023-01-04T02:55:54;-0.71;103.75
71801;HTU21D;59647;55.838;37.292;2023-01-04T02:58:31;-0.75;105.30
71801;HTU21D;59647;55.838;37.292;2023-01-04T03:01:11;-0.62;103.08
71801;HTU21D;59647;55.838;37.292;2023-01-04T03:07:38;-0.69;103.30
71801;HTU21D;59647;55.838;37.292;2023-01-04T03:09:44;-0.67;102.63
71801;HTU21D;59647;55.838;37.292;2023-01-04T03:12:16;-0.79;104.24
71801;HTU21D;59647;55.838;37.292;2023-01-04T03:15:17;-0.74;102.72
71801;HTU21D;59647;55.838;37.292;2023-01-04T03:17:45;-0.74;102.58
71801;HTU21D;59647;55.838;37.292;2023-01-04T03:20:12;-0.79;102.88
71801;HTU21D;59647;55.838;37.292;2023-01-04T03:22:42;-0.76;103.14
71801;HTU21D;59647;55.838;37.292;2023-01-04T03:25:30;-0.72;102.61
71801;HTU21D;59647;55.838;37.292;2023-01-04T03:28:15;-0.72;102.99
71801;HTU21D;59647;55.838;37.292;2023-01-04T03:31:06;-0.69;102.63
71801;HTU21D;59647;55.838;37.292;2023-01-04T03:33:51;-0.72;103.24
71801;HTU21D;59647;55.838;37.292;2023-01-04T03:39:03;-0.70;102.41
71801;HTU21D;59647;55.838;37.292;2023-01-04T03:45:18;-0.77;103.89
71801;HTU21D;59647;55.838;37.292;2023-01-04T03:48:19;-0.75;102.95
71801;HTU21D;59647;55.838;37.292;2023-01-04T03:53:24;-0.80;103.62
71801;HTU21D;59647;55.838;37.292;2023-01-04T03:55:50;-0.85;104.35
71801;HTU21D;59647;55.838;37.292;2023-01-04T03:58:17;-0.88;106.49
71801;HTU21D;59647;55.838;37.292;2023-01-04T04:00:44;-0.81;104.82
71801;HTU21D;59647;55.838;37.292;2023-01-04T04:03:10;-0.83;105.47
71801;HTU21D;59647;55.838;37.292;2023-01-04T04:05:39;-0.83;104.11
71801;HTU21D;59647;55.838;37.292;2023-01-04T04:08:24;-0.88;106.90
71801;HTU21D;59647;55.838;37.292;2023-01-04T04:10:59;-0.76;107.88
71801;HTU21D;59647;55.838;37.292;2023-01-04T04:13:45;-0.66;103.79
71801;HTU21D;59647;55.838;37.292;2023-01-04T04:16:11;-0.80;104.64
71801;HTU21D;59647;55.838;37.292;2023-01-04T04:18:37;-0.74;102.92
71801;HTU21D;59647;55.838;37.292;2023-01-04T04:21:03;-0.94;105.09
71801;HTU21D;59647;55.838;37.292;2023-01-04T04:23:28;-1.01;105.61
71801;HTU21D;59647;55.838;37.292;2023-01-04T04:25:54;-0.94;106.97
71801;HTU21D;59647;55.838;37.292;2023-01-04T04:28:19;-0.95;105.86
71801;HTU21D;59647;55.838;37.292;2023-01-04T04:30:48;-0.90;104.89
71801;HTU21D;59647;55.838;37.292;2023-01-04T04:33:13;-0.81;104.32
71801;HTU21D;59647;55.838;37.292;2023-01-04T04:35:39;-0.91;106.13
71801;HTU21D;59647;55.838;37.292;2023-01-04T04:38:05;-0.97;105.60
71801;HTU21D;59647;55.838;37.292;2023-01-04T04:40:31;-0.90;103.91
71801;HTU21D;59647;55.838;37.292;2023-01-04T04:43:15;-0.96;102.63
71801;HTU21D;59647;55.838;37.292;2023-01-04T04:45:41;-1.00;101.87
71801;HTU21D;59647;55.838;37.292;2023-01-04T04:48:06;-1.06;102.16
71801;HTU21D;59647;55.838;37.292;2023-01-04T04:50:32;-1.28;102.09
71801;HTU21D;59647;55.838;37.292;2023-01-04T04:52:58;-1.26;103.05
71801;HTU21D;59647;55.838;37.292;2023-01-04T04:55:23;-1.32;102.33
71801;HTU21D;59647;55.838;37.292;2023-01-04T04:57:49;-1.25;102.74
71801;HTU21D;59647;55.838;37.292;2023-01-04T05:00:15;-1.20;102.22
71801;HTU21D;59647;55.838;37.292;2023-01-04T05:02:40;-1.32;102.69
71801;HTU21D;59647;55.838;37.292;2023-01-04T05:05:06;-1.25;102.61
71801;HTU21D;59647;55.838;37.292;2023-01-04T05:07:32;-1.31;103.76
71801;HTU21D;59647;55.838;37.292;2023-01-04T05:09:58;-1.21;102.57
71801;HTU21D;59647;55.838;37.292;2023-01-04T05:12:23;-1.27;103.14
71801;HTU21D;59647;55.838;37.292;2023-01-04T05:15:07;-1.18;103.47
71801;HTU21D;59647;55.838;37.292;2023-01-04T05:17:33;-1.13;103.40
71801;HTU21D;59647;55.838;37.292;2023-01-04T05:19:59;-1.19;103.46
71801;HTU21D;59647;55.838;37.292;2023-01-04T05:22:24;-1.11;102.15
71801;HTU21D;59647;55.838;37.292;2023-01-04T05:24:50;-1.11;101.83
71801;HTU21D;59647;55.838;37.292;2023-01-04T05:27:15;-1.17;99.96
71801;HTU21D;59647;55.838;37.292;2023-01-04T05:29:41;-1.17;101.42
71801;HTU21D;59647;55.838;37.292;2023-01-04T05:32:25;-1.23;101.69
71801;HTU21D;59647;55.838;37.292;2023-01-04T05:34:51;-1.26;101.99
71801;HTU21D;59647;55.838;37.292;2023-01-04T05:37:16;-1.20;103.03
71801;HTU21D;59647;55.838;37.292;2023-01-04T05:39:42;-1.09;102.95
71801;HTU21D;59647;55.838;37.292;2023-01-04T05:42:08;-1.01;102.71
71801;HTU21D;59647;55.838;37.292;2023-01-04T05:44:56;-1.08;101.83
71801;HTU21D;59647;55.838;37.292;2023-01-04T05:47:22;-1.04;102.10
71801;HTU21D;59647;55.838;37.292;2023-01-04T05:49:48;-1.05;100.93
71801;HTU21D;59647;55.838;37.292;2023-01-04T05:52:14;-1.20;100.74
71801;HTU21D;59647;55.838;37.292;2023-01-04T05:54:40;-1.23;100.98
71801;HTU21D;59647;55.838;37.292;2023-01-04T05:57:05;-1.26;101.39
71801;HTU21D;59647;55.838;37.292;2023-01-04T05:59:31;-1.24;100.57
71801;HTU21D;59647;55.838;37.292;2023-01-04T06:01:57;-1.35;101.46
71801;HTU21D;59647;55.838;37.292;2023-01-04T06:04:22;-1.41;101.51
71801;HTU21D;59647;55.838;37.292;2023-01-04T06:06:48;-1.42;102.63
71801;HTU21D;59647;55.838;37.292;2023-01-04T06:09:14;-1.40;100.87
71801;HTU21D;59647;55.838;37.292;2023-01-04T06:11:41;-1.41;101.16
71801;HTU21D;59647;55.838;37.292;2023-01-04T06:14:08;-1.46;101.43
71801;HTU21D;59647;55.838;37.292;2023-01-04T06:16:35;-1.47;101.44
71801;HTU21D;59647;55.838;37.292;2023-01-04T06:19:02;-1.55;102.31
71801;HTU21D;59647;55.838;37.292;2023-01-04T06:21:30;-1.46;103.83
71801;HTU21D;59647;55.838;37.292;2023-01-04T06:23:56;-1.43;103.57
71801;HTU21D;59647;55.838;37.292;2023-01-04T06:26:21;-1.35;103.05
71801;HTU21D;59647;55.838;37.292;2023-01-04T06:28:48;-1.34;102.38
71801;HTU21D;59647;55.838;37.292;2023-01-04T06:31:14;-1.33;101.35
71801;HTU21D;59647;55.838;37.292;2023-01-04T06:33:40;-1.40;100.73
71801;HTU21D;59647;55.838;37.292;2023-01-04T06:36:06;-1.54;101.48
71801;HTU21D;59647;55.838;37.292;2023-01-04T06:38:32;-1.52;104.11
71801;HTU21D;59647;55.838;37.292;2023-01-04T06:40:59;-1.40;103.19
71801;HTU21D;59647;55.838;37.292;2023-01-04T06:43:25;-1.38;102.83
71801;HTU21D;59647;55.838;37.292;2023-01-04T06:45:52;-1.36;102.39
71801;HTU21D;59647;55.838;37.292;2023-01-04T06:48:19;-1.35;103.16
71801;HTU21D;59647;55.838;37.292;2023-01-04T06:50:45;-1.31;105.46
71801;HTU21D;59647;55.838;37.292;2023-01-04T06:53:12;-1.20;103.09
71801;HTU21D;59647;55.838;37.292;2023-01-04T06:55:37;-1.16;101.59
71801;HTU21D;59647;55.838;37.292;2023-01-04T06:58:04;-1.28;99.00
71801;HTU21D;59647;55.838;37.292;2023-01-04T07:00:29;-1.40;99.55
71801;HTU21D;59647;55.838;37.292;2023-01-04T07:02:55;-1.46;99.39
71801;HTU21D;59647;55.838;37.292;2023-01-04T07:05:20;-1.50;100.40
71801;HTU21D;59647;55.838;37.292;2023-01-04T07:07:46;-1.59;100.36
71801;HTU21D;59647;55.838;37.292;2023-01-04T07:10:12;-1.55;101.30
71801;HTU21D;59647;55.838;37.292;2023-01-04T07:12:38;-1.50;100.58
71801;HTU21D;59647;55.838;37.292;2023-01-04T07:15:07;-1.50;100.75
71801;HTU21D;59647;55.838;37.292;2023-01-04T07:17:36;-1.49;100.70
71801;HTU21D;59647;55.838;37.292;2023-01-04T07:20:05;-1.36;101.60
71801;HTU21D;59647;55.838;37.292;2023-01-04T07:22:41;-1.36;97.45
71801;HTU21D;59647;55.838;37.292;2023-01-04T07:25:09;-1.44;100.08
71801;HTU21D;59647;55.838;37.292;2023-01-04T07:27:40;-1.31;99.06
71801;HTU21D;59647;55.838;37.292;2023-01-04T07:30:09;-1.39;98.64
71801;HTU21D;59647;55.838;37.292;2023-01-04T07:32:38;-1.41;96.01
71801;HTU21D;59647;55.838;37.292;2023-01-04T07:35:04;-1.39;98.25
71801;HTU21D;59647;55.838;37.292;2023-01-04T07:37:36;-1.62;98.72
71801;HTU21D;59647;55.838;37.292;2023-01-04T07:40:04;-1.62;98.05
71801;HTU21D;59647;55.838;37.292;2023-01-04T07:42:33;-1.50;99.75
71801;HTU21D;59647;55.838;37.292;2023-01-04T07:44:59;-1.58;98.76
71801;HTU21D;59647;55.838;37.292;2023-01-04T07:47:27;-1.64;99.35
71801;HTU21D;59647;55.838;37.292;2023-01-04T07:49:55;-1.53;99.42
71801;HTU21D;59647;55.838;37.292;2023-01-04T07:52:21;-1.52;99.01
71801;HTU21D;59647;55.838;37.292;2023-01-04T07:54:48;-1.44;98.83
71801;HTU21D;59647;55.838;37.292;2023-01-04T07:57:14;-1.43;99.75
71801;HTU21D;59647;55.838;37.292;2023-01-04T07:59:42;-1.32;100.00
71801;HTU21D;59647;55.838;37.292;2023-01-04T08:02:09;-1.25;98.74
71801;HTU21D;59647;55.838;37.292;2023-01-04T08:04:35;-1.23;98.31
71801;HTU21D;59647;55.838;37.292;2023-01-04T08:07:00;-1.23;98.34
71801;HTU21D;59647;55.838;37.292;2023-01-04T08:09:26;-1.12;98.55
71801;HTU21D;59647;55.838;37.292;2023-01-04T08:11:52;-1.14;97.49
71801;HTU21D;59647;55.838;37.292;2023-01-04T08:14:18;-1.13;97.99
71801;HTU21D;59647;55.838;37.292;2023-01-04T08:16:45;-1.02;99.17
71801;HTU21D;59647;55.838;37.292;2023-01-04T08:19:12;-1.17;97.31
71801;HTU21D;59647;55.838;37.292;2023-01-04T08:21:38;-1.30;98.52
71801;HTU21D;59647;55.838;37.292;2023-01-04T08:24:04;-1.39;97.89
71801;HTU21D;59647;55.838;37.292;2023-01-04T08:26:30;-1.53;98.17
71801;HTU21D;59647;55.838;37.292;2023-01-04T08:28:57;-1.58;98.55
71801;HTU21D;59647;55.838;37.292;2023-01-04T08:31:27;-1.56;98.48
71801;HTU21D;59647;55.838;37.292;2023-01-04T08:33:54;-1.59;98.77
71801;HTU21D;59647;55.838;37.292;2023-01-04T08:36:24;-1.55;99.38
71801;HTU21D;59647;55.838;37.292;2023-01-04T08:38:52;-1.40;99.55
71801;HTU21D;59647;55.838;37.292;2023-01-04T08:41:18;-1.31;99.40
71801;HTU21D;59647;55.838;37.292;2023-01-04T08:43:46;-1.38;98.31
71801;HTU21D;59647;55.838;37.292;2023-01-04T08:46:12;-1.42;98.53
71801;HTU21D;59647;55.838;37.292;2023-01-04T08:48:39;-1.39;99.15
71801;HTU21D;59647;55.838;37.292;2023-01-04T08:51:07;-1.44;98.32
71801;HTU21D;59647;55.838;37.292;2023-01-04T08:53:33;-1.40;99.62
71801;HTU21D;59647;55.838;37.292;2023-01-04T08:55:58;-1.46;99.00
71801;HTU21D;59647;55.838;37.292;2023-01-04T08:58:25;-1.53;99.22
71801;HTU21D;59647;55.838;37.292;2023-01-04T09:00:51;-1.48;99.31
71801;HTU21D;59647;55.838;37.292;2023-01-04T09:03:17;-1.53;99.73
71801;HTU21D;59647;55.838;37.292;2023-01-04T09:05:43;-1.47;98.71
71801;HTU21D;59647;55.838;37.292;2023-01-04T09:08:10;-1.46;99.22
71801;HTU21D;59647;55.838;37.292;2023-01-04T09:10:37;-1.41;99.73
71801;HTU21D;59647;55.838;37.292;2023-01-04T09:13:03;-1.39;99.39
71801;HTU21D;59647;55.838;37.292;2023-01-04T09:15:29;-1.27;100.09
71801;HTU21D;59647;55.838;37.292;2023-01-04T09:17:54;-1.12;100.08
71801;HTU21D;59647;55.838;37.292;2023-01-04T09:20:21;-0.98;100.23
71801;HTU21D;59647;55.838;37.292;2023-01-04T09:22:46;-0.93;99.30
71801;HTU21D;59647;55.838;37.292;2023-01-04T09:25:12;-0.84;99.26
71801;HTU21D;59647;55.838;37.292;2023-01-04T09:27:38;-0.83;97.90
71801;HTU21D;59647;55.838;37.292;2023-01-04T09:30:04;-0.86;98.35
71801;HTU21D;59647;55.838;37.292;2023-01-04T09:32:30;-0.81;98.81
71801;HTU21D;59647;55.838;37.292;2023-01-04T09:34:55;-0.80;98.43
71801;HTU21D;59647;55.838;37.292;2023-01-04T09:37:21;-0.70;98.68
71801;HTU21D;59647;55.838;37.292;2023-01-04T09:39:47;-0.62;98.63
71801;HTU21D;59647;55.838;37.292;2023-01-04T09:47:10;-0.51;97.13
71801;HTU21D;59647;55.838;37.292;2023-01-04T09:49:40;-0.49;97.69
71801;HTU21D;59647;55.838;37.292;2023-01-04T09:54:43;-0.36;96.98
71801;HTU21D;59647;55.838;37.292;2023-01-04T09:57:20;-0.32;96.97
71801;HTU21D;59647;55.838;37.292;2023-01-04T09:59:49;-0.31;96.27
71801;HTU21D;59647;55.838;37.292;2023-01-04T10:02:17;-0.31;96.89
71801;HTU21D;59647;55.838;37.292;2023-01-04T10:04:46;-0.39;95.27
71801;HTU21D;59647;55.838;37.292;2023-01-04T10:07:17;-0.40;96.17
71801;HTU21D;59647;55.838;37.292;2023-01-04T10:09:44;-0.43;96.34
71801;HTU21D;59647;55.838;37.292;2023-01-04T10:12:17;-0.36;97.08
71801;HTU21D;59647;55.838;37.292;2023-01-04T10:20:31;-0.37;94.29
71801;HTU21D;59647;55.838;37.292;2023-01-04T10:25:25;-0.37;93.87
71801;HTU21D;59647;55.838;37.292;2023-01-04T10:28:11;-0.35;92.79
71801;HTU21D;59647;55.838;37.292;2023-01-04T10:33:14;-0.53;91.88
71801;HTU21D;59647;55.838;37.292;2023-01-04T10:35:41;-0.66;92.91
71801;HTU21D;59647;55.838;37.292;2023-01-04T10:38:19;-0.72;94.40
71801;HTU21D;59647;55.838;37.292;2023-01-04T10:40:47;-0.72;95.76
71801;HTU21D;59647;55.838;37.292;2023-01-04T10:45:57;-0.73;94.46
71801;HTU21D;59647;55.838;37.292;2023-01-04T10:51:02;-0.59;94.15
71801;HTU21D;59647;55.838;37.292;2023-01-04T10:53:34;-0.61;93.31
71801;HTU21D;59647;55.838;37.292;2023-01-04T10:58:46;-0.55;93.75
71801;HTU21D;59647;55.838;37.292;2023-01-04T11:03:46;-0.53;93.78
71801;HTU21D;59647;55.838;37.292;2023-01-04T11:06:15;-0.50;92.69
71801;HTU21D;59647;55.838;37.292;2023-01-04T11:09:03;-0.44;92.37
71801;HTU21D;59647;55.838;37.292;2023-01-04T11:14:01;-0.46;91.37
71801;HTU21D;59647;55.838;37.292;2023-01-04T11:16:28;-0.42;93.20
71801;HTU21D;59647;55.838;37.292;2023-01-04T11:18:54;-0.42;92.88
71801;HTU21D;59647;55.838;37.292;2023-01-04T11:21:20;-0.38;93.16
71801;HTU21D;59647;55.838;37.292;2023-01-04T11:23:47;-0.38;93.26
71801;HTU21D;59647;55.838;37.292;2023-01-04T11:26:17;-0.37;92.05
71801;HTU21D;59647;55.838;37.292;2023-01-04T11:31:20;-0.35;92.21
71801;HTU21D;59647;55.838;37.292;2023-01-04T11:36:35;-0.32;93.32
71801;HTU21D;59647;55.838;37.292;2023-01-04T11:39:02;-0.31;92.86
71801;HTU21D;59647;55.838;37.292;2023-01-04T11:41:28;-0.31;92.22
71801;HTU21D;59647;55.838;37.292;2023-01-04T11:46:26;-0.28;92.77
71801;HTU21D;59647;55.838;37.292;2023-01-04T11:48:54;-0.25;93.52
71801;HTU21D;59647;55.838;37.292;2023-01-04T11:56:25;-0.36;91.85
71801;HTU21D;59647;55.838;37.292;2023-01-04T12:01:30;-0.46;89.81
71801;HTU21D;59647;55.838;37.292;2023-01-04T12:03:58;-0.54;91.64
71801;HTU21D;59647;55.838;37.292;2023-01-04T12:06:27;-0.53;93.38
71801;HTU21D;59647;55.838;37.292;2023-01-04T12:08:58;-0.53;93.72
71801;HTU21D;59647;55.838;37.292;2023-01-04T12:11:28;-0.57;94.11
71801;HTU21D;59647;55.838;37.292;2023-01-04T12:13:58;-0.51;94.66
71801;HTU21D;59647;55.838;37.292;2023-01-04T12:16:28;-0.54;93.84
71801;HTU21D;59647;55.838;37.292;2023-01-04T12:18:56;-0.62;93.66
71801;HTU21D;59647;55.838;37.292;2023-01-04T12:21:24;-0.64;93.41
71801;HTU21D;59647;55.838;37.292;2023-01-04T12:23:53;-0.62;93.65
71801;HTU21D;59647;55.838;37.292;2023-01-04T12:26:19;-0.67;90.80
71801;HTU21D;59647;55.838;37.292;2023-01-04T12:28:49;-0.66;92.82
71801;HTU21D;59647;55.838;37.292;2023-01-04T12:33:44;-0.57;93.42
71801;HTU21D;59647;55.838;37.292;2023-01-04T12:36:11;-0.50;94.14
71801;HTU21D;59647;55.838;37.292;2023-01-04T12:38:57;-0.50;93.07
71801;HTU21D;59647;55.838;37.292;2023-01-04T12:49:58;-0.75;92.01
71801;HTU21D;59647;55.838;37.292;2023-01-04T12:57:35;-0.98;89.64
71801;HTU21D;59647;55.838;37.292;2023-01-04T13:00:05;-1.02;91.37
71801;HTU21D;59647;55.838;37.292;2023-01-04T13:05:40;-1.13;94.66
71801;HTU21D;59647;55.838;37.292;2023-01-04T13:07:47;-0.98;95.24
71801;HTU21D;59647;55.838;37.292;2023-01-04T13:15:16;-0.98;94.44
71801;HTU21D;59647;55.838;37.292;2023-01-04T13:17:45;-1.00;94.52
71801;HTU21D;59647;55.838;37.292;2023-01-04T13:20:18;-0.94;94.94
71801;HTU21D;59647;55.838;37.292;2023-01-04T13:22:52;-0.86;94.42
71801;HTU21D;59647;55.838;37.292;2023-01-04T13:25:21;-0.81;94.93
71801;HTU21D;59647;55.838;37.292;2023-01-04T13:27:57;-0.79;94.55
71801;HTU21D;59647;55.838;37.292;2023-01-04T13:30:27;-0.75;94.58
71801;HTU21D;59647;55.838;37.292;2023-01-04T13:32:56;-0.73;95.17
71801;HTU21D;59647;55.838;37.292;2023-01-04T13:35:24;-0.76;93.85
71801;HTU21D;59647;55.838;37.292;2023-01-04T13:37:49;-0.75;94.07
71801;HTU21D;59647;55.838;37.292;2023-01-04T13:43:01;-0.67;94.71
71801;HTU21D;59647;55.838;37.292;2023-01-04T13:48:12;-0.74;92.50
71801;HTU21D;59647;55.838;37.292;2023-01-04T13:50:43;-0.76;93.80
71801;HTU21D;59647;55.838;37.292;2023-01-04T13:53:16;-0.74;93.90
71801;HTU21D;59647;55.838;37.292;2023-01-04T13:55:45;-0.71;94.27
71801;HTU21D;59647;55.838;37.292;2023-01-04T13:58:18;-0.70;93.95
71801;HTU21D;59647;55.838;37.292;2023-01-04T14:00:55;-0.67;94.52
71801;HTU21D;59647;55.838;37.292;2023-01-04T14:03:29;-0.61;94.38
71801;HTU21D;59647;55.838;37.292;2023-01-04T14:05:59;-0.67;93.40
71801;HTU21D;59647;55.838;37.292;2023-01-04T14:08:31;-0.66;93.32
71801;HTU21D;59647;55.838;37.292;2023-01-04T14:10:57;-0.67;93.99
71801;HTU21D;59647;55.838;37.292;2023-01-04T14:13:23;-0.58;94.65
71801;HTU21D;59647;55.838;37.292;2023-01-04T14:16:02;-0.55;95.04
71801;HTU21D;59647;55.838;37.292;2023-01-04T14:18:29;-0.51;94.80
71801;HTU21D;59647;55.838;37.292;2023-01-04T14:20:56;-0.49;94.85
71801;HTU21D;59647;55.838;37.292;2023-01-04T14:23:42;-0.43;95.85
71801;HTU21D;59647;55.838;37.292;2023-01-04T14:26:24;-0.41;95.07
71801;HTU21D;59647;55.838;37.292;2023-01-04T14:28:53;-0.39;95.21
71801;HTU21D;59647;55.838;37.292;2023-01-04T14:31:19;-0.34;95.66
71801;HTU21D;59647;55.838;37.292;2023-01-04T14:33:48;-0.31;95.88
71801;HTU21D;59647;55.838;37.292;2023-01-04T14:38:44;-0.30;95.59
71801;HTU21D;59647;55.838;37.292;2023-01-04T14:41:20;-0.31;95.12
71801;HTU21D;59647;55.838;37.292;2023-01-04T14:43:51;-0.35;95.36
71801;HTU21D;59647;55.838;37.292;2023-01-04T14:46:18;-0.34;95.66
71801;HTU21D;59647;55.838;37.292;2023-01-04T14:48:44;-0.29;95.81
71801;HTU21D;59647;55.838;37.292;2023-01-04T14:51:13;-0.29;95.45
71801;HTU21D;59647;55.838;37.292;2023-01-04T14:53:40;-0.26;96.16
71801;HTU21D;59647;55.838;37.292;2023-01-04T14:56:07;-0.21;95.79
71801;HTU21D;59647;55.838;37.292;2023-01-04T14:58:35;-0.22;95.89
71801;HTU21D;59647;55.838;37.292;2023-01-04T15:01:00;-0.20;96.13
71801;HTU21D;59647;55.838;37.292;2023-01-04T15:03:26;-0.21;95.28
71801;HTU21D;59647;55.838;37.292;2023-01-04T15:05:52;-0.22;95.88
71801;HTU21D;59647;55.838;37.292;2023-01-04T15:08:17;-0.17;95.95
71801;HTU21D;59647;55.838;37.292;2023-01-04T15:10:43;-0.19;96.09
71801;HTU21D;59647;55.838;37.292;2023-01-04T15:13:10;-0.19;95.91
71801;HTU21D;59647;55.838;37.292;2023-01-04T15:15:36;-0.19;96.01
71801;HTU21D;59647;55.838;37.292;2023-01-04T15:18:02;-0.15;96.42
71801;HTU21D;59647;55.838;37.292;2023-01-04T15:20:27;-0.14;96.65
71801;HTU21D;59647;55.838;37.292;2023-01-04T15:22:53;-0.19;96.19
71801;HTU21D;59647;55.838;37.292;2023-01-04T15:25:20;-0.20;96.37
71801;HTU21D;59647;55.838;37.292;2023-01-04T15:27:47;-0.16;96.71
71801;HTU21D;59647;55.838;37.292;2023-01-04T15:30:13;-0.15;97.00
71801;HTU21D;59647;55.838;37.292;2023-01-04T15:32:39;-0.15;96.69
71801;HTU21D;59647;55.838;37.292;2023-01-04T15:35:05;-0.15;96.99
71801;HTU21D;59647;55.838;37.292;2023-01-04T15:37:31;-0.14;97.29
71801;HTU21D;59647;55.838;37.292;2023-01-04T15:39:57;-0.16;96.96
71801;HTU21D;59647;55.838;37.292;2023-01-04T15:42:22;-0.19;97.30
71801;HTU21D;59647;55.838;37.292;2023-01-04T15:45:07;-0.15;97.70
71801;HTU21D;59647;55.838;37.292;2023-01-04T15:47:33;-0.15;97.74
71801;HTU21D;59647;55.838;37.292;2023-01-04T15:49:59;-0.14;97.76
71801;HTU21D;59647;55.838;37.292;2023-01-04T15:52:25;-0.09;97.88
71801;HTU21D;59647;55.838;37.292;2023-01-04T15:54:51;-0.11;97.78
71801;HTU21D;59647;55.838;37.292;2023-01-04T15:57:17;-0.09;98.02
71801;HTU21D;59647;55.838;37.292;2023-01-04T15:59:42;-0.08;97.91
71801;HTU21D;59647;55.838;37.292;2023-01-04T16:02:11;-0.11;97.78
71801;HTU21D;59647;55.838;37.292;2023-01-04T16:04:37;-0.09;97.97
71801;HTU21D;59647;55.838;37.292;2023-01-04T16:07:03;-0.11;98.13
71801;HTU21D;59647;55.838;37.292;2023-01-04T16:09:29;-0.11;98.35
71801;HTU21D;59647;55.838;37.292;2023-01-04T16:11:55;-0.07;98.26
71801;HTU21D;59647;55.838;37.292;2023-01-04T16:14:39;-0.05;98.32
71801;HTU21D;59647;55.838;37.292;2023-01-04T16:17:05;-0.01;98.50
71801;HTU21D;59647;55.838;37.292;2023-01-04T16:19:33;-0.03;98.47
71801;HTU21D;59647;55.838;37.292;2023-01-04T16:21:59;-0.05;98.61
71801;HTU21D;59647;55.838;37.292;2023-01-04T16:24:25;-0.01;98.67
71801;HTU21D;59647;55.838;37.292;2023-01-04T16:26:51;0.01;98.85
71801;HTU21D;59647;55.838;37.292;2023-01-04T16:29:17;0.02;98.71
71801;HTU21D;59647;55.838;37.292;2023-01-04T16:31:44;0.04;98.78
71801;HTU21D;59647;55.838;37.292;2023-01-04T16:34:12;0.06;99.04
71801;HTU21D;59647;55.838;37.292;2023-01-04T16:36:38;0.04;98.95
71801;HTU21D;59647;55.838;37.292;2023-01-04T16:39:04;0.03;99.00
71801;HTU21D;59647;55.838;37.292;2023-01-04T16:41:30;0.01;99.07
71801;HTU21D;59647;55.838;37.292;2023-01-04T16:43:56;-0.03;99.34
71801;HTU21D;59647;55.838;37.292;2023-01-04T16:46:25;-0.02;99.58
71801;HTU21D;59647;55.838;37.292;2023-01-04T16:48:55;0.01;99.71
71801;HTU21D;59647;55.838;37.292;2023-01-04T16:51:21;-0.02;99.68
71801;HTU21D;59647;55.838;37.292;2023-01-04T16:53:47;-0.00;100.36
71801;HTU21D;59647;55.838;37.292;2023-01-04T16:56:14;-0.02;99.96
71801;HTU21D;59647;55.838;37.292;2023-01-04T16:58:40;-0.06;100.15